Time;durP1;ratioP1;P1;durP2;ratioP2;P2;SDS_P1;SDS_P2;PMS_P1;PMS_P2;Temp;Humidity;BMP_temperature;BMP_pressure;BME280_temperature;BME280_humidity;BME280_pressure;Samples;Min_cycle;Max_cycle;Signal;HPM_P1;HPM_P2
2024/01/10 00:00:44;;;;;;;18.00;7.88;;;;;;;-1.56;42.30;101753.31;4229542;28;20139;-64
2024/01/10 00:02:47;;;;;;;15.35;8.45;;;;;;;-1.62;41.77;101757.88;4229837;28;20043;-62
2024/01/10 00:04:49;;;;;;;18.38;9.45;;;;;;;-1.54;42.09;101751.78;4231011;28;20488;-63
2024/01/10 00:06:52;;;;;;;17.55;8.98;;;;;;;-1.59;42.04;101753.06;4228709;28;20048;-62
2024/01/10 00:08:55;;;;;;;15.93;8.73;;;;;;;-1.57;42.22;101751.53;4230964;28;20047;-62
2024/01/10 00:10:58;;;;;;;19.10;9.93;;;;;;;-1.57;41.20;101748.97;4231122;28;20044;-62
2024/01/10 00:13:00;;;;;;;16.38;8.50;;;;;;;-1.63;42.38;101748.47;4230912;28;20123;-62
2024/01/10 00:15:06;;;;;;;16.38;8.65;;;;;;;-1.48;41.46;101746.31;4231074;28;20038;-62
2024/01/10 00:17:09;;;;;;;16.77;8.80;;;;;;;-1.47;42.17;101748.09;4225260;28;20040;-62
2024/01/10 00:19:12;;;;;;;16.77;9.07;;;;;;;-1.48;41.70;101748.84;4240765;27;20093;-62
2024/01/10 00:21:15;;;;;;;18.13;9.13;;;;;;;-1.62;41.67;101745.13;4229906;28;20085;-62
2024/01/10 00:23:18;;;;;;;18.40;8.95;;;;;;;-1.53;41.93;101743.38;4229556;28;20063;-62
2024/01/10 00:25:21;;;;;;;18.20;8.93;;;;;;;-1.64;41.63;101744.13;4229933;28;20036;-62
2024/01/10 00:27:24;;;;;;;16.52;9.15;;;;;;;-1.57;41.96;101741.34;4229232;28;20035;-62
2024/01/10 00:29:27;;;;;;;18.00;9.68;;;;;;;-1.53;41.56;101727.16;4230659;28;20059;-62
2024/01/10 00:31:31;;;;;;;19.42;9.27;;;;;;;-1.56;41.54;101725.28;4229675;28;20398;-62
2024/01/10 00:33:34;;;;;;;17.90;9.68;;;;;;;-1.69;41.57;101730.13;4226953;28;20036;-61
2024/01/10 00:35:37;;;;;;;18.98;9.73;;;;;;;-1.67;42.36;101731.13;4226511;28;20055;-62
2024/01/10 00:37:40;;;;;;;19.63;10.10;;;;;;;-1.69;42.34;101736.09;4229356;28;20027;-62
2024/01/10 00:39:43;;;;;;;19.63;9.13;;;;;;;-1.68;42.50;101736.97;4229360;27;20117;-62
2024/01/10 00:41:46;;;;;;;18.50;9.38;;;;;;;-1.69;42.85;101735.22;4223468;28;20767;-62
2024/01/10 00:43:49;;;;;;;20.85;10.70;;;;;;;-1.76;42.66;101738.91;4229352;28;20035;-62
2024/01/10 00:45:52;;;;;;;19.75;9.50;;;;;;;-1.60;43.30;101728.31;4227002;28;20477;-62
2024/01/10 00:47:56;;;;;;;15.05;9.43;;;;;;;-1.72;43.34;101722.19;4226973;28;20044;-62
2024/01/10 00:49:58;;;;;;;17.73;9.32;;;;;;;-1.77;43.74;101727.81;4230165;28;20027;-62
2024/01/10 00:52:01;;;;;;;20.95;10.45;;;;;;;-1.75;44.25;101725.41;4230582;28;20443;-62
2024/01/10 00:54:04;;;;;;;18.92;10.45;;;;;;;-1.75;44.91;101725.41;4231233;28;20130;-62
2024/01/10 00:56:08;;;;;;;19.75;10.55;;;;;;;-1.69;45.93;101722.47;4229160;28;20138;-62
2024/01/10 00:58:11;;;;;;;22.30;11.27;;;;;;;-1.89;46.57;101726.75;4229025;28;20031;-62
2024/01/10 01:00:14;;;;;;;22.88;11.00;;;;;;;-1.99;47.05;101735.28;4228873;28;20051;-62
2024/01/10 01:02:18;;;;;;;19.23;11.07;;;;;;;-1.99;46.60;101724.19;4226647;28;20035;-62
2024/01/10 01:04:22;;;;;;;24.67;11.07;;;;;;;-1.98;47.54;101731.97;4228435;28;20047;-62
2024/01/10 01:06:25;;;;;;;20.52;11.27;;;;;;;-1.95;47.60;101726.25;4211036;28;20032;-61
2024/01/10 01:08:28;;;;;;;23.60;11.10;;;;;;;-1.97;47.02;101725.22;4228469;28;20069;-62
2024/01/10 01:10:31;;;;;;;22.10;11.07;;;;;;;-2.08;47.32;101726.84;4228255;28;20032;-63
2024/01/10 01:12:39;;;;;;;20.25;10.50;;;;;;;-2.02;47.87;101729.91;4229760;28;20119;-61
2024/01/10 01:14:42;;;;;;;23.27;12.05;;;;;;;-1.96;47.69;101734.66;4230890;28;20036;-63
2024/01/10 01:16:45;;;;;;;18.27;10.05;;;;;;;-1.98;47.70;101723.44;4227735;28;20393;-62
2024/01/10 01:18:48;;;;;;;19.98;10.50;;;;;;;-1.97;47.45;101718.47;4229351;28;20046;-62
2024/01/10 01:20:52;;;;;;;19.52;11.18;;;;;;;-2.08;47.81;101728.53;4230468;28;20093;-62
2024/01/10 01:22:55;;;;;;;19.63;11.60;;;;;;;-2.12;47.55;101730.81;4227735;28;20071;-63
2024/01/10 01:24:58;;;;;;;23.38;11.52;;;;;;;-2.12;47.79;101725.72;4228361;28;20393;-63
2024/01/10 01:27:01;;;;;;;22.55;11.73;;;;;;;-2.11;47.83;101735.13;4229529;28;20039;-63
2024/01/10 01:29:04;;;;;;;21.13;11.63;;;;;;;-2.06;47.34;101732.06;4228458;28;20047;-63
2024/01/10 01:31:06;;;;;;;22.85;11.40;;;;;;;-2.10;47.79;101728.38;4219949;28;20078;-63
2024/01/10 01:33:09;;;;;;;22.83;11.38;;;;;;;-2.19;48.91;101725.94;4226102;28;20485;-63
2024/01/10 01:35:12;;;;;;;21.90;12.52;;;;;;;-2.00;47.82;101725.88;4229722;28;20035;-64
2024/01/10 01:37:16;;;;;;;22.58;11.57;;;;;;;-2.12;47.84;101725.72;4229348;28;20080;-62
2024/01/10 01:39:19;;;;;;;21.88;11.50;;;;;;;-2.22;48.55;101730.78;4229845;28;20626;-63
2024/01/10 01:41:22;;;;;;;24.73;13.00;;;;;;;-2.26;48.55;101730.34;4228230;28;20131;-63
2024/01/10 01:43:26;;;;;;;22.23;10.73;;;;;;;-2.21;47.93;101732.53;4229205;28;20039;-63
2024/01/10 01:45:29;;;;;;;28.02;12.23;;;;;;;-2.28;48.79;101735.31;4229313;28;20457;-63
2024/01/10 01:47:32;;;;;;;22.35;10.88;;;;;;;-2.22;48.03;101733.31;4229245;28;20122;-62
2024/01/10 01:49:34;;;;;;;22.17;12.00;;;;;;;-2.14;47.62;101734.88;4230631;28;20040;-63
2024/01/10 01:51:37;;;;;;;21.88;11.73;;;;;;;-2.05;47.71;101738.97;4229508;28;20031;-63
2024/01/10 01:53:43;;;;;;;21.13;10.88;;;;;;;-2.11;47.88;101737.66;4228764;28;20031;-63
2024/01/10 01:55:45;;;;;;;24.05;11.23;;;;;;;-2.04;47.37;101741.66;4229491;28;20367;-63
2024/01/10 01:57:48;;;;;;;21.33;10.73;;;;;;;-2.02;46.58;101746.88;4227743;28;20621;-63
2024/01/10 01:59:51;;;;;;;21.58;11.38;;;;;;;-2.08;46.95;101737.03;4229586;28;20034;-62
2024/01/10 02:01:56;;;;;;;22.55;11.65;;;;;;;-2.01;46.68;101741.03;4224865;28;20066;-64
2024/01/10 02:04:01;;;;;;;22.40;12.18;;;;;;;-2.00;46.48;101727.50;4230536;28;20039;-64
2024/01/10 02:06:05;;;;;;;24.08;11.75;;;;;;;-1.99;47.25;101730.16;4229111;28;20043;-66
2024/01/10 02:08:09;;;;;;;23.77;11.13;;;;;;;-1.98;46.59;101728.53;4229010;28;20084;-63
2024/01/10 02:10:13;;;;;;;20.70;11.35;;;;;;;-2.06;47.14;101732.06;4228146;28;20077;-62
2024/01/10 02:12:16;;;;;;;20.00;10.55;;;;;;;-1.98;46.37;101721.78;4229868;28;20039;-63
2024/01/10 02:14:18;;;;;;;23.83;11.50;;;;;;;-1.99;47.07;101719.97;4228690;28;20468;-63
2024/01/10 02:16:22;;;;;;;20.58;11.25;;;;;;;-1.91;46.21;101722.28;4229444;28;20050;-63
2024/01/10 02:18:26;;;;;;;19.67;10.07;;;;;;;-1.88;45.97;101726.00;4228984;28;20032;-63
2024/01/10 02:20:29;;;;;;;23.15;10.82;;;;;;;-1.89;46.29;101728.44;4227563;28;20039;-63
2024/01/10 02:22:32;;;;;;;19.80;10.13;;;;;;;-1.98;45.39;101720.91;4230868;28;20077;-63
2024/01/10 02:24:35;;;;;;;17.23;9.73;;;;;;;-1.79;45.21;101728.44;4232460;28;20038;-62
2024/01/10 02:26:39;;;;;;;18.98;10.70;;;;;;;-1.80;44.19;101730.06;4231990;28;20093;-62
2024/01/10 02:28:42;;;;;;;22.05;11.07;;;;;;;-1.80;44.75;101724.97;4231455;28;20590;-62
2024/01/10 02:30:47;;;;;;;22.00;10.90;;;;;;;-1.72;43.97;101728.19;4230254;28;20097;-62
2024/01/10 02:32:50;;;;;;;19.88;10.25;;;;;;;-1.71;43.22;101717.22;4229014;28;20114;-62
2024/01/10 02:34:53;;;;;;;18.65;10.60;;;;;;;-1.71;44.29;101719.75;4229477;27;20036;-63
2024/01/10 02:36:57;;;;;;;17.58;10.23;;;;;;;-1.82;44.39;101718.00;4236142;27;20412;-63
2024/01/10 02:39:00;;;;;;;18.60;9.95;;;;;;;-1.79;43.57;101719.13;4231173;28;20028;-62
2024/01/10 02:41:04;;;;;;;27.75;10.82;;;;;;;-1.80;43.58;101706.25;4226296;28;20076;-63
2024/01/10 02:43:09;;;;;;;20.33;10.15;;;;;;;-1.74;43.38;101710.97;4228866;28;20089;-63
2024/01/10 02:45:11;;;;;;;23.98;10.95;;;;;;;-1.82;43.16;101708.69;4231608;28;20081;-63
2024/01/10 02:47:14;;;;;;;19.20;10.38;;;;;;;-1.85;43.39;101703.31;4231070;28;20040;-63
2024/01/10 02:49:18;;;;;;;20.42;10.15;;;;;;;-1.90;43.68;101704.56;4232130;28;20489;-63
2024/01/10 02:51:21;;;;;;;20.98;11.30;;;;;;;-1.85;43.40;101698.22;4232092;28;20043;-63
2024/01/10 02:53:24;;;;;;;22.15;10.73;;;;;;;-1.73;42.95;101693.25;4231213;28;20057;-63
2024/01/10 02:55:27;;;;;;;22.02;10.65;;;;;;;-1.81;44.24;101700.28;4230142;28;20467;-64
2024/01/10 02:57:30;;;;;;;17.48;9.98;;;;;;;-1.74;43.39;101682.94;4229525;27;20037;-63
2024/01/10 02:59:34;;;;;;;22.95;10.10;;;;;;;-1.77;43.71;101686.13;4232535;27;20059;-63
2024/01/10 03:01:36;;;;;;;22.98;11.30;;;;;;;-1.80;43.10;101688.41;4244084;27;20039;-64
2024/01/10 03:03:39;;;;;;;24.00;11.45;;;;;;;-1.73;43.30;101687.28;4229785;28;20088;-62
2024/01/10 03:05:42;;;;;;;19.25;10.60;;;;;;;-1.87;43.72;101689.56;4230155;28;20089;-62
2024/01/10 03:07:45;;;;;;;22.40;11.45;;;;;;;-1.92;44.34;101688.28;4232563;28;20035;-62
2024/01/10 03:09:48;;;;;;;19.58;11.25;;;;;;;-1.83;43.98;101681.38;4231367;28;20080;-62
2024/01/10 03:11:51;;;;;;;21.17;11.50;;;;;;;-1.91;43.76;101684.97;4229639;28;20040;-63
2024/01/10 03:14:01;;;;;;;19.83;9.80;;;;;;;-1.86;43.65;101681.13;4239045;27;20451;-62
2024/01/10 03:16:06;;;;;;;21.58;11.45;;;;;;;-1.82;44.24;101678.09;4229259;28;20039;-63
2024/01/10 03:18:09;;;;;;;;;;;;;;;-1.93;44.57;101683.94;4229776;28;20031;-64
2024/01/10 03:20:12;;;;;;;19.30;10.30;;;;;;;-1.77;43.69;101674.28;4230139;28;19969;-62
2024/01/10 03:22:15;;;;;;;23.25;11.48;;;;;;;-1.87;43.79;101674.28;4230372;28;20043;-63
2024/01/10 03:24:17;;;;;;;21.70;10.70;;;;;;;-1.78;44.32;101674.16;4231697;28;20036;-63
2024/01/10 03:26:20;;;;;;;20.52;11.15;;;;;;;-1.85;44.47;101669.31;4232544;28;20126;-62
2024/01/10 03:28:23;;;;;;;24.50;11.38;;;;;;;-1.90;43.98;101674.00;4229704;28;20472;-62
2024/01/10 03:30:26;;;;;;;22.77;10.90;;;;;;;-1.81;43.32;101669.69;4230577;28;20042;-63
2024/01/10 03:32:31;;;;;;;20.92;11.00;;;;;;;-1.87;43.40;101679.38;4231651;28;20040;-63
2024/01/10 03:34:35;;;;;;;22.05;10.57;;;;;;;-1.78;44.15;101671.59;4230782;28;20027;-62
2024/01/10 03:36:38;;;;;;;19.13;10.68;;;;;;;-1.80;43.30;101668.91;4224376;28;20404;-62
2024/01/10 03:38:41;;;;;;;23.30;11.35;;;;;;;-1.78;43.52;101669.06;4231394;28;20032;-62
2024/01/10 03:40:44;;;;;;;19.58;10.70;;;;;;;-1.63;43.04;101660.13;4228528;28;20122;-63
2024/01/10 03:42:47;;;;;;;17.67;10.70;;;;;;;-1.58;42.48;101661.41;4229043;28;20031;-63
2024/01/10 03:44:49;;;;;;;19.50;10.57;;;;;;;-1.69;42.62;101663.84;4230165;28;20043;-63
2024/01/10 03:46:52;;;;;;;20.17;10.70;;;;;;;-1.70;43.26;101664.59;4231296;28;20035;-62
2024/01/10 03:48:57;;;;;;;19.95;11.95;;;;;;;-1.71;42.71;101665.34;4230068;28;20040;-62
2024/01/10 03:50:59;;;;;;;18.55;9.85;;;;;;;-1.73;43.75;101667.78;4232216;28;20381;-62
2024/01/10 03:53:02;;;;;;;23.52;11.32;;;;;;;-1.81;43.42;101667.13;4230253;28;20034;-64
2024/01/10 03:55:05;;;;;;;24.30;11.10;;;;;;;-1.70;42.97;101669.69;4229205;27;20170;-63
2024/01/10 03:57:09;;;;;;;18.10;10.05;;;;;;;-1.74;42.84;101665.09;4224451;28;20059;-63
2024/01/10 03:59:13;;;;;;;24.83;11.53;;;;;;;-1.81;43.78;101669.69;4242489;27;20035;-63
2024/01/10 04:01:16;;;;;;;22.38;11.02;;;;;;;-1.84;43.97;101673.63;4229915;28;20817;-62
2024/01/10 04:03:19;;;;;;;20.88;10.65;;;;;;;-1.80;43.16;101665.47;4231031;28;20031;-62
2024/01/10 04:05:25;;;;;;;20.90;11.15;;;;;;;-1.75;42.57;101669.31;4229082;28;20039;-62
2024/01/10 04:07:29;;;;;;;19.95;10.10;;;;;;;-1.86;43.90;101668.41;4231724;28;20063;-62
2024/01/10 04:09:31;;;;;;;19.92;10.63;;;;;;;-1.82;43.19;101672.13;4230780;28;20034;-62
2024/01/10 04:11:34;;;;;;;20.08;10.77;;;;;;;-1.78;43.93;101669.06;4229929;28;20070;-62
2024/01/10 04:13:37;;;;;;;20.88;10.98;;;;;;;-1.80;43.77;101671.44;4229559;28;20482;-63
2024/01/10 04:15:40;;;;;;;20.75;10.68;;;;;;;-1.77;43.65;101673.38;4234517;27;20043;-63
2024/01/10 04:17:43;;;;;;;22.25;10.85;;;;;;;-1.66;42.66;101669.19;4229209;28;20063;-62
2024/01/10 04:19:45;;;;;;;20.65;10.27;;;;;;;-1.78;43.92;101664.84;4230913;28;20055;-62
2024/01/10 04:21:49;;;;;;;23.80;11.15;;;;;;;-1.87;43.74;101668.28;4229599;28;20036;-62
2024/01/10 04:23:52;;;;;;;20.90;10.27;;;;;;;-1.95;43.86;101676.16;4230570;28;20127;-62
2024/01/10 04:25:54;;;;;;;18.10;10.27;;;;;;;-1.96;43.98;101678.59;4230725;28;20047;-62
2024/01/10 04:27:57;;;;;;;20.27;10.38;;;;;;;-1.90;44.51;101679.09;4229292;28;20036;-62
2024/01/10 04:30:00;;;;;;;24.13;11.00;;;;;;;-1.96;44.36;101668.38;4230191;28;20123;-63
2024/01/10 04:32:04;;;;;;;19.20;9.95;;;;;;;-1.96;44.25;101671.84;4227236;28;20437;-63
2024/01/10 04:34:07;;;;;;;20.52;11.52;;;;;;;-1.79;43.83;101675.78;4230528;27;20034;-63
2024/01/10 04:36:10;;;;;;;22.25;11.27;;;;;;;-1.84;44.38;101673.63;4230627;28;20035;-63
2024/01/10 04:38:13;;;;;;;18.15;11.05;;;;;;;-1.85;43.22;101682.06;4229980;28;20493;-63
2024/01/10 04:40:17;;;;;;;20.17;10.90;;;;;;;-1.81;43.81;101672.25;4229422;28;20542;-64
2024/01/10 04:42:20;;;;;;;21.08;11.77;;;;;;;-1.76;43.44;101672.63;4227683;28;20123;-64
2024/01/10 04:44:23;;;;;;;22.33;10.90;;;;;;;-1.76;43.86;101672.63;4228466;28;20374;-64
2024/01/10 04:46:26;;;;;;;24.52;12.65;;;;;;;-1.77;44.33;101671.75;4230051;28;20424;-65
2024/01/10 04:48:29;;;;;;;22.35;11.68;;;;;;;-1.78;43.59;101679.25;4229869;28;20038;-63
2024/01/10 04:50:32;;;;;;;24.10;10.75;;;;;;;-1.64;43.16;101676.16;4227932;27;20034;-63
2024/01/10 04:52:35;;;;;;;23.15;12.18;;;;;;;-1.82;44.12;101673.00;4227729;28;20552;-63
2024/01/10 04:54:39;;;;;;;23.48;10.73;;;;;;;-1.82;43.81;101678.09;4222945;28;20088;-63
2024/01/10 04:56:42;;;;;;;21.40;10.98;;;;;;;-1.80;43.96;101675.66;4231284;28;20036;-63
2024/01/10 04:58:46;;;;;;;22.60;12.18;;;;;;;-1.71;44.52;101676.41;4225815;28;20086;-63
2024/01/10 05:00:49;;;;;;;24.27;11.60;;;;;;;-1.85;45.89;101674.41;4224537;28;20039;-63
2024/01/10 05:02:52;;;;;;;23.95;12.45;;;;;;;-1.92;45.68;101680.63;4225153;27;20039;-63
2024/01/10 05:04:55;;;;;;;26.38;12.82;;;;;;;-1.92;46.17;101685.72;4228744;27;20046;-64
2024/01/10 05:06:58;;;;;;;24.17;13.15;;;;;;;-1.87;46.10;101688.66;4227547;28;20067;-68
2024/01/10 05:09:01;;;;;;;26.65;13.60;;;;;;;-1.92;46.21;101685.72;4229837;28;20122;-63
2024/01/10 05:11:06;;;;;;;24.85;13.38;;;;;;;-1.98;47.16;101682.69;4229978;28;20069;-63
2024/01/10 05:13:11;;;;;;;25.08;13.00;;;;;;;-1.95;46.87;101685.47;4231074;28;20046;-63
2024/01/10 05:15:14;;;;;;;24.98;13.25;;;;;;;-1.92;47.14;101680.63;4231081;28;20039;-63
2024/01/10 05:17:16;;;;;;;26.38;14.35;;;;;;;-1.91;47.00;101674.78;4230484;28;20493;-62
2024/01/10 05:19:19;;;;;;;26.55;13.02;;;;;;;-1.84;47.22;101683.81;4227909;28;20634;-63
2024/01/10 05:21:23;;;;;;;25.23;12.63;;;;;;;-1.95;47.34;101681.25;4230572;28;20723;-62
2024/01/10 05:23:26;;;;;;;25.63;12.75;;;;;;;-2.03;47.99;101687.38;4231003;28;20075;-63
2024/01/10 05:25:29;;;;;;;22.73;12.02;;;;;;;-2.03;47.49;101689.94;4229843;28;20039;-63
2024/01/10 05:27:33;;;;;;;25.17;13.90;;;;;;;-1.97;46.96;101680.25;4229441;28;20130;-62
2024/01/10 05:29:37;;;;;;;22.42;13.13;;;;;;;-2.04;47.53;101677.06;4230059;28;20036;-63
2024/01/10 05:31:40;;;;;;;22.80;12.40;;;;;;;-2.02;46.92;101672.97;4222665;28;20442;-64
2024/01/10 05:33:43;;;;;;;23.67;12.48;;;;;;;-1.98;47.07;101673.34;4229727;28;20039;-63
2024/01/10 05:35:47;;;;;;;25.30;13.05;;;;;;;-2.02;46.50;101673.84;4228976;28;20096;-62
2024/01/10 05:37:49;;;;;;;24.65;12.82;;;;;;;-1.89;46.96;101677.47;4229915;28;20092;-64
2024/01/10 05:39:52;;;;;;;24.92;12.48;;;;;;;-1.97;47.25;101681.88;4230864;28;20481;-63
2024/01/10 05:41:55;;;;;;;26.25;12.45;;;;;;;-1.93;47.15;101668.66;4231118;28;20035;-63
2024/01/10 05:44:00;;;;;;;28.17;12.55;;;;;;;-1.98;46.42;101670.81;4230941;28;20071;-63
2024/01/10 05:46:04;;;;;;;22.25;11.98;;;;;;;-1.87;46.36;101666.63;4229896;28;20040;-62
2024/01/10 05:48:08;;;;;;;23.25;11.52;;;;;;;-1.92;45.77;101670.44;4229770;28;20035;-63
2024/01/10 05:50:11;;;;;;;22.25;10.57;;;;;;;-1.95;46.20;101677.84;4229465;28;20089;-63
2024/01/10 05:52:14;;;;;;;21.73;11.60;;;;;;;-1.98;45.55;101675.03;4229548;28;20040;-63
2024/01/10 05:54:18;;;;;;;25.73;12.63;;;;;;;-1.87;45.10;101676.84;4229517;28;20410;-63
2024/01/10 05:56:20;;;;;;;23.27;12.25;;;;;;;-1.81;44.05;101672.25;4229219;28;20046;-63
2024/01/10 05:58:24;;;;;;;27.70;12.32;;;;;;;-1.92;45.29;101679.75;4230279;28;20039;-63
2024/01/10 06:00:29;;;;;;;23.05;11.15;;;;;;;-1.97;45.15;101681.88;4211858;28;20032;-63
2024/01/10 06:02:32;;;;;;;23.92;12.65;;;;;;;-1.92;44.54;101675.53;4227835;28;22067;-63
2024/01/10 06:04:35;;;;;;;22.38;10.55;;;;;;;-1.91;44.33;101679.88;4229729;28;20039;-63
2024/01/10 06:06:39;;;;;;;20.17;11.70;;;;;;;-2.01;43.87;101682.41;4222297;28;20040;-64
2024/01/10 06:08:43;;;;;;;21.33;11.88;;;;;;;-1.81;43.26;101674.78;4228391;28;20077;-64
2024/01/10 06:10:45;;;;;;;22.05;11.43;;;;;;;-1.78;44.42;101676.72;4230479;28;20063;-63
2024/01/10 06:12:48;;;;;;;22.65;12.10;;;;;;;-1.83;44.02;101680.50;4230586;28;20036;-63
2024/01/10 06:14:50;;;;;;;23.60;11.23;;;;;;;-1.80;42.96;101679.09;4229634;28;20042;-64
2024/01/10 06:16:54;;;;;;;22.35;11.10;;;;;;;-1.81;42.90;101689.16;4230490;28;20119;-63
2024/01/10 06:18:59;;;;;;;20.42;10.45;;;;;;;-1.90;43.06;101689.28;4229860;28;20039;-63
2024/01/10 06:21:02;;;;;;;24.17;11.95;;;;;;;-1.86;43.75;101686.25;4230202;28;20024;-63
2024/01/10 06:23:05;;;;;;;26.15;11.55;;;;;;;-2.03;44.03;101686.47;4224867;28;20040;-63
2024/01/10 06:25:08;;;;;;;21.88;11.02;;;;;;;-2.02;43.68;101688.25;4230343;28;20035;-64
2024/01/10 06:27:11;;;;;;;22.50;11.18;;;;;;;-1.98;43.60;101682.69;4229033;28;20516;-63
2024/01/10 06:29:14;;;;;;;22.70;10.70;;;;;;;-2.00;44.27;101691.81;4229417;28;20044;-65
2024/01/10 06:31:17;;;;;;;28.20;13.13;;;;;;;-2.09;44.72;101693.59;4229209;28;20038;-64
2024/01/10 06:33:21;;;;;;;24.35;11.75;;;;;;;-2.06;44.88;101691.31;4230518;28;20067;-63
2024/01/10 06:35:24;;;;;;;19.17;10.63;;;;;;;-2.03;44.69;101687.38;4229379;28;20042;-63
2024/01/10 06:37:27;;;;;;;22.83;11.02;;;;;;;-1.94;44.18;101687.28;4229872;28;20054;-63
2024/01/10 06:39:29;;;;;;;18.27;10.32;;;;;;;-1.96;44.51;101683.69;4223927;28;20039;-64
2024/01/10 06:41:32;;;;;;;20.80;10.55;;;;;;;-1.92;44.58;101685.72;4229702;28;20489;-63
2024/01/10 06:43:35;;;;;;;20.52;11.45;;;;;;;-1.90;44.73;101683.31;4230373;28;20039;-64
2024/01/10 06:45:38;;;;;;;22.35;12.30;;;;;;;-1.91;45.04;101692.63;4230338;28;20046;-64
2024/01/10 06:47:41;;;;;;;22.40;11.40;;;;;;;-1.84;45.34;101689.81;4229981;28;20044;-64
2024/01/10 06:49:45;;;;;;;19.45;10.85;;;;;;;-1.72;44.00;101689.03;4229127;28;20047;-65
2024/01/10 06:51:48;;;;;;;21.13;12.25;;;;;;;-1.76;44.75;101696.44;4230104;28;20039;-65
2024/01/10 06:53:51;;;;;;;23.73;11.65;;;;;;;-1.84;44.52;101694.00;4230064;28;20039;-68
2024/01/10 06:55:54;;;;;;;19.52;10.95;;;;;;;-1.88;44.25;101697.97;4236800;28;20054;-64
2024/01/10 06:57:57;;;;;;;28.02;13.13;;;;;;;-1.73;44.46;101695.81;4240906;27;20496;-64
2024/01/10 07:00:01;;;;;;;19.83;11.27;;;;;;;-1.74;44.85;101700.78;4243321;27;20191;-64
2024/01/10 07:02:05;;;;;;;24.38;12.32;;;;;;;-1.65;43.43;101694.81;4227713;28;20043;-66
2024/01/10 07:04:08;;;;;;;22.95;11.48;;;;;;;-1.65;44.62;101696.44;4225895;28;20063;-66
2024/01/10 07:06:14;;;;;;;20.50;11.82;;;;;;;-1.67;44.39;101697.97;4229071;28;20059;-63
2024/01/10 07:08:18;;;;;;;22.85;11.75;;;;;;;-1.71;43.99;101706.13;4229712;28;20493;-64
2024/01/10 07:10:25;;;;;;;20.25;10.80;;;;;;;-1.69;45.20;101704.63;4231692;28;20040;-64
2024/01/10 07:12:28;;;;;;;23.27;10.95;;;;;;;-1.63;44.35;101698.34;4232907;28;20462;-64
2024/01/10 07:14:31;;;;;;;22.35;12.10;;;;;;;-1.56;44.14;101707.44;4233082;28;20580;-64
2024/01/10 07:16:34;;;;;;;21.38;10.07;;;;;;;-1.54;43.94;101710.97;4233087;28;20065;-65
2024/01/10 07:18:40;;;;;;;22.33;10.63;;;;;;;-1.53;43.72;101711.88;4232813;28;20039;-64
2024/01/10 07:20:43;;;;;;;23.05;11.95;;;;;;;-1.57;44.64;101720.94;4230551;28;20042;-64
2024/01/10 07:22:49;;;;;;;21.23;11.95;;;;;;;-1.53;44.18;101719.50;4231255;28;20043;-64
2024/01/10 07:24:51;;;;;;;21.45;13.18;;;;;;;-1.50;43.70;101718.13;4232220;28;20047;-64
2024/01/10 07:26:53;;;;;;;20.23;11.02;;;;;;;-1.49;43.42;101717.38;4231882;28;20287;-65
2024/01/10 07:28:56;;;;;;;24.00;12.27;;;;;;;-1.42;44.27;101717.13;4230891;28;20065;-64
2024/01/10 07:31:00;;;;;;;23.02;11.88;;;;;;;-1.43;44.35;101720.44;4232546;28;20048;-64
2024/01/10 07:33:03;;;;;;;19.17;11.13;;;;;;;-1.43;44.61;101715.31;4232770;28;20123;-65
2024/01/10 07:35:09;;;;;;;20.58;10.60;;;;;;;-1.44;43.93;101723.72;4231837;28;20032;-65
2024/01/10 07:37:12;;;;;;;24.25;12.52;;;;;;;-1.34;43.83;101724.47;4230772;28;20027;-64
2024/01/10 07:39:18;;;;;;;21.13;11.68;;;;;;;-1.33;43.19;101726.28;4232474;28;20127;-64
2024/01/10 07:41:21;;;;;;;24.30;10.82;;;;;;;-1.45;43.39;101726.16;4231039;28;20474;-64
2024/01/10 07:43:23;;;;;;;22.30;11.13;;;;;;;-1.42;44.23;101729.88;4232310;28;20036;-64
2024/01/10 07:45:26;;;;;;;25.27;12.48;;;;;;;-1.27;43.95;101740.44;4232472;28;20067;-64
2024/01/10 07:47:29;;;;;;;24.60;11.63;;;;;;;-1.39;43.85;101735.97;4232196;28;20040;-64
2024/01/10 07:49:32;;;;;;;21.52;11.77;;;;;;;-1.33;42.47;101737.38;4232131;28;20040;-65
2024/01/10 07:51:35;;;;;;;20.77;11.43;;;;;;;-1.43;43.11;101743.38;4230048;28;20036;-64
2024/01/10 07:53:37;;;;;;;20.48;10.85;;;;;;;-1.44;43.93;101738.16;4214136;28;20039;-64
2024/01/10 07:55:42;;;;;;;20.80;10.93;;;;;;;-1.54;42.96;101744.13;4232363;28;20058;-64
2024/01/10 07:57:45;;;;;;;25.65;11.27;;;;;;;-1.55;43.10;101749.09;4231995;28;20071;-64
2024/01/10 07:59:48;;;;;;;22.30;12.07;;;;;;;-1.53;43.95;101748.47;4231574;28;20036;-64
2024/01/10 08:01:56;;;;;;;20.77;11.27;;;;;;;-1.41;44.12;101744.38;4230379;28;20035;-64
2024/01/10 08:03:59;;;;;;;20.85;11.60;;;;;;;-1.46;43.71;101750.78;4229604;28;20043;-64
2024/01/10 08:06:03;;;;;;;24.10;12.57;;;;;;;-1.48;43.67;101752.28;4232139;27;20067;-64
2024/01/10 08:08:06;;;;;;;18.33;11.00;;;;;;;-1.49;43.83;101747.06;4231800;28;20035;-64
2024/01/10 08:10:10;;;;;;;23.63;11.45;;;;;;;-1.44;43.22;101743.25;4212981;28;20597;-64
2024/01/10 08:12:14;;;;;;;21.52;12.00;;;;;;;-1.52;43.54;101749.34;4232000;28;20036;-64
2024/01/10 08:14:17;;;;;;;20.40;11.15;;;;;;;-1.52;44.45;101759.56;4231945;28;20062;-64
2024/01/10 08:16:21;;;;;;;23.85;12.20;;;;;;;-1.45;44.10;101760.19;4230797;28;20065;-66
2024/01/10 08:18:23;;;;;;;27.73;12.80;;;;;;;-1.42;44.37;101746.81;4231702;28;20050;-66
2024/01/10 08:20:26;;;;;;;22.10;12.60;;;;;;;-1.41;43.91;101759.69;4230489;28;20045;-64
2024/01/10 08:22:29;;;;;;;21.95;12.13;;;;;;;-1.34;44.30;101755.09;4231787;28;20035;-64
2024/01/10 08:24:32;;;;;;;24.67;12.02;;;;;;;-1.37;44.16;101762.50;4231862;28;20118;-64
2024/01/10 08:26:34;;;;;;;23.35;12.18;;;;;;;-1.39;43.63;101759.81;4230587;28;20077;-63
2024/01/10 08:28:40;;;;;;;26.52;12.45;;;;;;;-1.41;44.36;101758.81;4231445;28;20040;-64
2024/01/10 08:30:43;;;;;;;24.45;11.23;;;;;;;-1.42;44.31;101760.47;4230618;28;20043;-64
2024/01/10 08:32:46;;;;;;;19.63;10.48;;;;;;;-1.38;44.32;101765.84;4231608;28;20038;-64
2024/01/10 08:34:50;;;;;;;22.45;11.35;;;;;;;-1.34;43.83;101755.09;4231815;28;20043;-65
2024/01/10 08:36:54;;;;;;;22.27;12.50;;;;;;;-1.19;44.44;101755.50;4230644;28;20038;-67
2024/01/10 08:38:57;;;;;;;23.65;11.88;;;;;;;-1.03;43.19;101762.75;4231402;28;20096;-64
2024/01/10 08:40:59;;;;;;;21.10;11.43;;;;;;;-1.12;43.62;101753.56;4230519;28;20122;-64
2024/01/10 08:43:02;;;;;;;18.98;11.07;;;;;;;-1.16;43.81;101755.75;4230152;28;20088;-64
2024/01/10 08:45:09;;;;;;;19.52;11.70;;;;;;;-1.27;43.36;101754.84;4230671;28;20155;-63
2024/01/10 08:47:11;;;;;;;24.58;12.18;;;;;;;-1.15;43.40;101760.09;4231125;28;20108;-64
2024/01/10 08:49:14;;;;;;;22.35;10.95;;;;;;;-1.20;43.43;101754.56;4228984;28;20067;-65
2024/01/10 08:51:16;;;;;;;24.77;12.98;;;;;;;-1.17;43.96;101756.50;4246799;27;20038;-65
2024/01/10 08:53:19;;;;;;;25.50;12.90;;;;;;;-1.10;43.91;101757.13;4227798;28;20582;-66
2024/01/10 08:55:21;;;;;;;20.23;12.45;;;;;;;-1.05;43.72;101757.53;4231165;28;20040;-64
2024/01/10 08:57:26;;;;;;;22.85;11.48;;;;;;;-1.06;43.46;101756.59;4231041;28;20405;-63
2024/01/10 08:59:29;;;;;;;24.83;13.15;;;;;;;-1.12;43.67;101752.69;4231013;28;20047;-63
2024/01/10 09:01:33;;;;;;;21.35;11.82;;;;;;;-1.09;44.15;101758.91;4231251;28;20036;-63
2024/01/10 09:03:37;;;;;;;22.73;11.65;;;;;;;-0.98;44.54;101753.78;4231318;28;20074;-63
2024/01/10 09:05:40;;;;;;;23.53;12.07;;;;;;;-0.89;44.12;101752.00;4230797;27;20031;-63
2024/01/10 09:07:49;;;;;;;21.95;12.40;;;;;;;-1.08;44.10;101760.72;4222446;28;20281;-67
2024/01/10 09:09:51;;;;;;;24.90;13.13;;;;;;;-1.14;43.63;101760.22;4231161;28;20032;-63
2024/01/10 09:11:54;;;;;;;27.60;14.07;;;;;;;-1.10;44.58;101759.66;4230041;28;20042;-63
2024/01/10 09:13:56;;;;;;;25.42;14.07;;;;;;;-1.14;44.02;101750.00;4231152;28;20042;-63
2024/01/10 09:15:59;;;;;;;26.08;13.05;;;;;;;-1.08;43.66;101758.16;4231286;28;20036;-63
2024/01/10 09:18:04;;;;;;;23.63;12.40;;;;;;;-1.11;44.84;101757.91;4230869;28;20439;-63
2024/01/10 09:20:08;;;;;;;26.55;13.23;;;;;;;-1.01;44.59;101761.19;4229370;28;20032;-64